sensor_id;sensor_type;location;lat;lon;timestamp;P1;durP1;ratioP1;P2;durP2;ratioP2
41572;SDS011;27286;47.870;19.006;2023-11-22T00:01:12;8.38;;;4.93;;
41572;SDS011;27286;47.870;19.006;2023-11-22T00:04:05;8.57;;;5.75;;
41572;SDS011;27286;47.870;19.006;2023-11-22T00:07:12;11.02;;;5.82;;
41572;SDS011;27286;47.870;19.006;2023-11-22T00:10:01;7.97;;;5.47;;
41572;SDS011;27286;47.870;19.006;2023-11-22T00:12:35;7.32;;;4.75;;
41572;SDS011;27286;47.870;19.006;2023-11-22T00:15:49;9.50;;;5.63;;
41572;SDS011;27286;47.870;19.006;2023-11-22T00:21:45;9.45;;;5.85;;
41572;SDS011;27286;47.870;19.006;2023-11-22T00:24:46;10.30;;;4.68;;
41572;SDS011;27286;47.870;19.006;2023-11-22T00:27:35;8.57;;;4.32;;
41572;SDS011;27286;47.870;19.006;2023-11-22T00:30:33;7.10;;;4.70;;
41572;SDS011;27286;47.870;19.006;2023-11-22T00:33:37;7.95;;;5.45;;
41572;SDS011;27286;47.870;19.006;2023-11-22T00:37:05;6.88;;;4.03;;
41572;SDS011;27286;47.870;19.006;2023-11-22T00:40:05;6.20;;;4.35;;
41572;SDS011;27286;47.870;19.006;2023-11-22T00:42:56;6.85;;;4.47;;
41572;SDS011;27286;47.870;19.006;2023-11-22T00:46:30;10.38;;;5.47;;
41572;SDS011;27286;47.870;19.006;2023-11-22T00:49:42;8.05;;;5.05;;
41572;SDS011;27286;47.870;19.006;2023-11-22T00:52:59;9.27;;;4.78;;
41572;SDS011;27286;47.870;19.006;2023-11-22T00:56:00;10.40;;;4.95;;
41572;SDS011;27286;47.870;19.006;2023-11-22T00:58:41;7.57;;;4.97;;
41572;SDS011;27286;47.870;19.006;2023-11-22T01:01:57;8.88;;;4.78;;
41572;SDS011;27286;47.870;19.006;2023-11-22T01:05:06;6.50;;;3.90;;
41572;SDS011;27286;47.870;19.006;2023-11-22T01:07:59;7.47;;;5.35;;
41572;SDS011;27286;47.870;19.006;2023-11-22T01:11:22;8.35;;;4.15;;
41572;SDS011;27286;47.870;19.006;2023-11-22T01:14:09;7.43;;;4.18;;
41572;SDS011;27286;47.870;19.006;2023-11-22T01:20:00;7.07;;;4.97;;
41572;SDS011;27286;47.870;19.006;2023-11-22T01:23:03;5.28;;;3.67;;
41572;SDS011;27286;47.870;19.006;2023-11-22T01:25:54;6.03;;;4.05;;
41572;SDS011;27286;47.870;19.006;2023-11-22T01:28:51;5.70;;;3.65;;
41572;SDS011;27286;47.870;19.006;2023-11-22T01:31:51;5.85;;;3.75;;
41572;SDS011;27286;47.870;19.006;2023-11-22T01:34:20;4.57;;;3.35;;
41572;SDS011;27286;47.870;19.006;2023-11-22T01:39:58;4.85;;;3.28;;
41572;SDS011;27286;47.870;19.006;2023-11-22T01:43:23;6.25;;;3.30;;
41572;SDS011;27286;47.870;19.006;2023-11-22T01:46:10;8.95;;;3.78;;
41572;SDS011;27286;47.870;19.006;2023-11-22T01:53:09;5.28;;;3.60;;
41572;SDS011;27286;47.870;19.006;2023-11-22T01:55:44;7.45;;;4.10;;
41572;SDS011;27286;47.870;19.006;2023-11-22T02:01:33;6.32;;;3.72;;
41572;SDS011;27286;47.870;19.006;2023-11-22T02:04:08;7.22;;;3.08;;
41572;SDS011;27286;47.870;19.006;2023-11-22T02:07:48;6.15;;;3.55;;
41572;SDS011;27286;47.870;19.006;2023-11-22T02:17:24;4.18;;;2.17;;
41572;SDS011;27286;47.870;19.006;2023-11-22T02:23:12;2.85;;;1.80;;
41572;SDS011;27286;47.870;19.006;2023-11-22T02:26:07;3.13;;;1.70;;
41572;SDS011;27286;47.870;19.006;2023-11-22T02:33:08;5.65;;;2.38;;
41572;SDS011;27286;47.870;19.006;2023-11-22T02:36:06;5.38;;;2.53;;
41572;SDS011;27286;47.870;19.006;2023-11-22T02:39:02;4.45;;;2.38;;
41572;SDS011;27286;47.870;19.006;2023-11-22T02:42:25;3.20;;;1.90;;
41572;SDS011;27286;47.870;19.006;2023-11-22T02:48:42;4.63;;;2.20;;
41572;SDS011;27286;47.870;19.006;2023-11-22T02:52:09;3.80;;;1.80;;
41572;SDS011;27286;47.870;19.006;2023-11-22T02:55:11;5.30;;;2.30;;
41572;SDS011;27286;47.870;19.006;2023-11-22T02:58:06;4.00;;;1.95;;
41572;SDS011;27286;47.870;19.006;2023-11-22T03:01:00;3.70;;;1.77;;
41572;SDS011;27286;47.870;19.006;2023-11-22T03:03:56;3.70;;;2.10;;
41572;SDS011;27286;47.870;19.006;2023-11-22T03:07:18;3.45;;;1.80;;
41572;SDS011;27286;47.870;19.006;2023-11-22T03:09:55;5.93;;;2.22;;
41572;SDS011;27286;47.870;19.006;2023-11-22T03:13:05;3.25;;;2.00;;
41572;SDS011;27286;47.870;19.006;2023-11-22T03:15:48;4.57;;;1.88;;
41572;SDS011;27286;47.870;19.006;2023-11-22T03:18:15;3.47;;;1.98;;
41572;SDS011;27286;47.870;19.006;2023-11-22T03:21:25;3.60;;;1.60;;
41572;SDS011;27286;47.870;19.006;2023-11-22T03:25:06;3.10;;;1.38;;
41572;SDS011;27286;47.870;19.006;2023-11-22T03:27:59;3.03;;;1.17;;
41572;SDS011;27286;47.870;19.006;2023-11-22T03:30:49;3.63;;;1.75;;
41572;SDS011;27286;47.870;19.006;2023-11-22T03:33:51;3.15;;;1.85;;
41572;SDS011;27286;47.870;19.006;2023-11-22T03:37:00;4.78;;;1.50;;
41572;SDS011;27286;47.870;19.006;2023-11-22T03:39:59;2.65;;;1.63;;
41572;SDS011;27286;47.870;19.006;2023-11-22T03:42:46;2.03;;;1.00;;
41572;SDS011;27286;47.870;19.006;2023-11-22T03:45:26;2.22;;;0.93;;
41572;SDS011;27286;47.870;19.006;2023-11-22T03:48:24;2.88;;;1.50;;
41572;SDS011;27286;47.870;19.006;2023-11-22T03:51:36;3.17;;;1.15;;
41572;SDS011;27286;47.870;19.006;2023-11-22T03:54:21;1.98;;;0.98;;
41572;SDS011;27286;47.870;19.006;2023-11-22T03:56:56;2.95;;;1.30;;
41572;SDS011;27286;47.870;19.006;2023-11-22T03:59:52;3.05;;;1.67;;
41572;SDS011;27286;47.870;19.006;2023-11-22T04:02:49;2.75;;;1.40;;
41572;SDS011;27286;47.870;19.006;2023-11-22T04:05:37;3.88;;;1.60;;
41572;SDS011;27286;47.870;19.006;2023-11-22T04:08:30;4.20;;;1.65;;
41572;SDS011;27286;47.870;19.006;2023-11-22T04:11:27;2.20;;;1.15;;
41572;SDS011;27286;47.870;19.006;2023-11-22T04:14:46;2.50;;;1.27;;
41572;SDS011;27286;47.870;19.006;2023-11-22T04:17:27;2.70;;;1.52;;
41572;SDS011;27286;47.870;19.006;2023-11-22T04:20:20;3.42;;;1.35;;
41572;SDS011;27286;47.870;19.006;2023-11-22T04:26:23;3.53;;;1.60;;
41572;SDS011;27286;47.870;19.006;2023-11-22T04:29:10;4.05;;;2.25;;
41572;SDS011;27286;47.870;19.006;2023-11-22T04:31:51;2.92;;;1.20;;
41572;SDS011;27286;47.870;19.006;2023-11-22T04:34:26;3.65;;;1.67;;
41572;SDS011;27286;47.870;19.006;2023-11-22T04:37:55;3.63;;;1.90;;
41572;SDS011;27286;47.870;19.006;2023-11-22T04:40:23;4.18;;;1.65;;
41572;SDS011;27286;47.870;19.006;2023-11-22T04:42:57;4.40;;;2.00;;
41572;SDS011;27286;47.870;19.006;2023-11-22T04:45:49;10.40;;;1.58;;
41572;SDS011;27286;47.870;19.006;2023-11-22T04:48:43;3.03;;;1.60;;
41572;SDS011;27286;47.870;19.006;2023-11-22T04:51:17;3.55;;;1.75;;
41572;SDS011;27286;47.870;19.006;2023-11-22T04:53:48;3.17;;;1.65;;
41572;SDS011;27286;47.870;19.006;2023-11-22T04:56:40;2.70;;;1.38;;
41572;SDS011;27286;47.870;19.006;2023-11-22T04:59:46;3.50;;;1.58;;
41572;SDS011;27286;47.870;19.006;2023-11-22T05:02:47;3.75;;;1.58;;
41572;SDS011;27286;47.870;19.006;2023-11-22T05:05:50;2.17;;;0.93;;
41572;SDS011;27286;47.870;19.006;2023-11-22T05:08:37;2.25;;;0.90;;
41572;SDS011;27286;47.870;19.006;2023-11-22T05:11:33;10.38;;;1.30;;
41572;SDS011;27286;47.870;19.006;2023-11-22T05:14:31;1.65;;;0.85;;
41572;SDS011;27286;47.870;19.006;2023-11-22T05:17:22;2.97;;;1.38;;
41572;SDS011;27286;47.870;19.006;2023-11-22T05:23:23;2.15;;;0.80;;
41572;SDS011;27286;47.870;19.006;2023-11-22T05:26:34;1.95;;;1.02;;
41572;SDS011;27286;47.870;19.006;2023-11-22T05:29:21;2.70;;;1.15;;
41572;SDS011;27286;47.870;19.006;2023-11-22T05:31:48;3.72;;;1.48;;
41572;SDS011;27286;47.870;19.006;2023-11-22T05:35:04;5.45;;;1.92;;
41572;SDS011;27286;47.870;19.006;2023-11-22T05:38:16;3.30;;;1.20;;
41572;SDS011;27286;47.870;19.006;2023-11-22T05:41:24;5.45;;;0.82;;
41572;SDS011;27286;47.870;19.006;2023-11-22T05:44:21;1.98;;;1.13;;
41572;SDS011;27286;47.870;19.006;2023-11-22T05:47:15;2.13;;;1.10;;
41572;SDS011;27286;47.870;19.006;2023-11-22T05:49:48;1.67;;;0.77;;
41572;SDS011;27286;47.870;19.006;2023-11-22T05:52:40;2.30;;;0.88;;
41572;SDS011;27286;47.870;19.006;2023-11-22T05:55:48;2.80;;;1.35;;
41572;SDS011;27286;47.870;19.006;2023-11-22T05:58:25;2.22;;;0.90;;
41572;SDS011;27286;47.870;19.006;2023-11-22T06:01:14;2.30;;;0.93;;
41572;SDS011;27286;47.870;19.006;2023-11-22T06:03:58;1.55;;;0.75;;
41572;SDS011;27286;47.870;19.006;2023-11-22T06:06:55;1.42;;;0.60;;
41572;SDS011;27286;47.870;19.006;2023-11-22T06:10:13;1.98;;;0.77;;
41572;SDS011;27286;47.870;19.006;2023-11-22T06:12:51;2.17;;;0.60;;
41572;SDS011;27286;47.870;19.006;2023-11-22T06:15:45;2.20;;;1.02;;
41572;SDS011;27286;47.870;19.006;2023-11-22T06:18:35;1.92;;;1.02;;
41572;SDS011;27286;47.870;19.006;2023-11-22T06:21:24;3.60;;;1.20;;
41572;SDS011;27286;47.870;19.006;2023-11-22T06:24:19;1.40;;;0.60;;
41572;SDS011;27286;47.870;19.006;2023-11-22T06:27:31;3.88;;;0.82;;
41572;SDS011;27286;47.870;19.006;2023-11-22T06:30:41;1.45;;;0.60;;
41572;SDS011;27286;47.870;19.006;2023-11-22T06:33:08;2.03;;;0.88;;
41572;SDS011;27286;47.870;19.006;2023-11-22T06:35:46;1.58;;;0.60;;
41572;SDS011;27286;47.870;19.006;2023-11-22T06:38:26;1.73;;;0.60;;
41572;SDS011;27286;47.870;19.006;2023-11-22T06:41:35;1.88;;;0.80;;
41572;SDS011;27286;47.870;19.006;2023-11-22T06:44:33;1.83;;;0.60;;
41572;SDS011;27286;47.870;19.006;2023-11-22T06:47:51;6.60;;;3.92;;
41572;SDS011;27286;47.870;19.006;2023-11-22T06:50:43;8.85;;;5.22;;
41572;SDS011;27286;47.870;19.006;2023-11-22T06:53:36;8.05;;;4.78;;
41572;SDS011;27286;47.870;19.006;2023-11-22T06:56:33;7.40;;;3.63;;
41572;SDS011;27286;47.870;19.006;2023-11-22T06:59:26;7.22;;;3.47;;
41572;SDS011;27286;47.870;19.006;2023-11-22T07:02:18;7.13;;;3.92;;
41572;SDS011;27286;47.870;19.006;2023-11-22T07:05:01;10.52;;;6.47;;
41572;SDS011;27286;47.870;19.006;2023-11-22T07:07:31;9.18;;;4.68;;
41572;SDS011;27286;47.870;19.006;2023-11-22T07:11:01;4.40;;;2.17;;
41572;SDS011;27286;47.870;19.006;2023-11-22T07:13:59;2.33;;;0.95;;
41572;SDS011;27286;47.870;19.006;2023-11-22T07:17:16;2.47;;;0.90;;
41572;SDS011;27286;47.870;19.006;2023-11-22T07:20:30;3.55;;;1.92;;
41572;SDS011;27286;47.870;19.006;2023-11-22T07:23:05;4.13;;;2.50;;
41572;SDS011;27286;47.870;19.006;2023-11-22T07:25:56;3.10;;;1.23;;
41572;SDS011;27286;47.870;19.006;2023-11-22T07:28:26;3.10;;;1.63;;
41572;SDS011;27286;47.870;19.006;2023-11-22T07:31:12;2.95;;;0.95;;
41572;SDS011;27286;47.870;19.006;2023-11-22T07:33:49;5.30;;;2.42;;
41572;SDS011;27286;47.870;19.006;2023-11-22T07:36:38;3.65;;;1.88;;
41572;SDS011;27286;47.870;19.006;2023-11-22T07:39:36;8.57;;;4.97;;
41572;SDS011;27286;47.870;19.006;2023-11-22T07:42:31;16.52;;;7.28;;
41572;SDS011;27286;47.870;19.006;2023-11-22T07:45:20;47.85;;;28.60;;
41572;SDS011;27286;47.870;19.006;2023-11-22T07:48:10;49.22;;;29.48;;
41572;SDS011;27286;47.870;19.006;2023-11-22T07:50:51;33.95;;;22.05;;
41572;SDS011;27286;47.870;19.006;2023-11-22T07:54:20;42.80;;;22.98;;
41572;SDS011;27286;47.870;19.006;2023-11-22T07:57:20;38.38;;;17.63;;
41572;SDS011;27286;47.870;19.006;2023-11-22T08:00:12;42.75;;;20.42;;
41572;SDS011;27286;47.870;19.006;2023-11-22T08:03:14;43.15;;;23.85;;
41572;SDS011;27286;47.870;19.006;2023-11-22T08:06:07;34.50;;;19.08;;
41572;SDS011;27286;47.870;19.006;2023-11-22T08:08:39;21.45;;;11.95;;
41572;SDS011;27286;47.870;19.006;2023-11-22T08:15:13;13.48;;;7.32;;
41572;SDS011;27286;47.870;19.006;2023-11-22T08:18:21;7.53;;;4.35;;
41572;SDS011;27286;47.870;19.006;2023-11-22T08:21:15;6.50;;;3.33;;
41572;SDS011;27286;47.870;19.006;2023-11-22T08:23:42;3.92;;;1.33;;
41572;SDS011;27286;47.870;19.006;2023-11-22T08:26:15;3.05;;;1.42;;
41572;SDS011;27286;47.870;19.006;2023-11-22T08:32:05;2.65;;;1.50;;
41572;SDS011;27286;47.870;19.006;2023-11-22T08:34:58;2.25;;;0.95;;
41572;SDS011;27286;47.870;19.006;2023-11-22T08:43:41;4.40;;;1.40;;
41572;SDS011;27286;47.870;19.006;2023-11-22T08:46:07;1.88;;;0.90;;
41572;SDS011;27286;47.870;19.006;2023-11-22T08:48:33;2.97;;;1.50;;
41572;SDS011;27286;47.870;19.006;2023-11-22T08:51:00;2.95;;;1.73;;
41572;SDS011;27286;47.870;19.006;2023-11-22T08:53:26;5.47;;;1.73;;
41572;SDS011;27286;47.870;19.006;2023-11-22T08:55:52;3.15;;;1.52;;
41572;SDS011;27286;47.870;19.006;2023-11-22T08:58:20;4.40;;;1.80;;
41572;SDS011;27286;47.870;19.006;2023-11-22T09:00:46;4.13;;;1.77;;
41572;SDS011;27286;47.870;19.006;2023-11-22T09:03:12;4.47;;;2.28;;
41572;SDS011;27286;47.870;19.006;2023-11-22T09:05:38;5.88;;;2.45;;
41572;SDS011;27286;47.870;19.006;2023-11-22T09:08:04;4.00;;;2.60;;
41572;SDS011;27286;47.870;19.006;2023-11-22T09:10:30;5.97;;;2.30;;
41572;SDS011;27286;47.870;19.006;2023-11-22T09:12:55;3.53;;;2.13;;
41572;SDS011;27286;47.870;19.006;2023-11-22T09:15:24;3.72;;;2.17;;
41572;SDS011;27286;47.870;19.006;2023-11-22T09:17:51;4.22;;;1.95;;
41572;SDS011;27286;47.870;19.006;2023-11-22T09:20:18;3.60;;;1.80;;
41572;SDS011;27286;47.870;19.006;2023-11-22T09:22:48;2.40;;;1.45;;
41572;SDS011;27286;47.870;19.006;2023-11-22T09:25:19;2.45;;;1.15;;
41572;SDS011;27286;47.870;19.006;2023-11-22T09:27:46;3.15;;;1.52;;
41572;SDS011;27286;47.870;19.006;2023-11-22T09:30:14;4.03;;;2.13;;
41572;SDS011;27286;47.870;19.006;2023-11-22T09:32:48;3.97;;;1.88;;
41572;SDS011;27286;47.870;19.006;2023-11-22T09:35:14;3.05;;;1.60;;
41572;SDS011;27286;47.870;19.006;2023-11-22T09:37:40;2.88;;;1.83;;
41572;SDS011;27286;47.870;19.006;2023-11-22T09:40:09;4.07;;;2.28;;
41572;SDS011;27286;47.870;19.006;2023-11-22T09:42:36;4.90;;;2.63;;
41572;SDS011;27286;47.870;19.006;2023-11-22T09:45:02;4.95;;;2.50;;
41572;SDS011;27286;47.870;19.006;2023-11-22T09:47:29;2.85;;;1.13;;
41572;SDS011;27286;47.870;19.006;2023-11-22T09:49:59;2.83;;;1.10;;
41572;SDS011;27286;47.870;19.006;2023-11-22T09:52:27;2.17;;;1.02;;
41572;SDS011;27286;47.870;19.006;2023-11-22T09:54:55;3.15;;;1.30;;
41572;SDS011;27286;47.870;19.006;2023-11-22T09:57:21;3.53;;;1.30;;
41572;SDS011;27286;47.870;19.006;2023-11-22T09:59:49;1.88;;;1.00;;
41572;SDS011;27286;47.870;19.006;2023-11-22T10:02:17;3.05;;;1.25;;
41572;SDS011;27286;47.870;19.006;2023-11-22T10:04:43;1.90;;;0.90;;
41572;SDS011;27286;47.870;19.006;2023-11-22T10:07:10;2.53;;;1.08;;
41572;SDS011;27286;47.870;19.006;2023-11-22T10:09:36;2.30;;;1.05;;
41572;SDS011;27286;47.870;19.006;2023-11-22T10:12:03;3.20;;;1.50;;
41572;SDS011;27286;47.870;19.006;2023-11-22T10:14:30;3.13;;;1.52;;
41572;SDS011;27286;47.870;19.006;2023-11-22T10:16:59;3.10;;;1.45;;
41572;SDS011;27286;47.870;19.006;2023-11-22T10:19:25;2.90;;;1.30;;
41572;SDS011;27286;47.870;19.006;2023-11-22T10:22:07;2.22;;;1.17;;
41572;SDS011;27286;47.870;19.006;2023-11-22T10:24:34;2.90;;;1.50;;
41572;SDS011;27286;47.870;19.006;2023-11-22T10:27:01;3.50;;;1.83;;
41572;SDS011;27286;47.870;19.006;2023-11-22T10:29:27;3.63;;;1.50;;
41572;SDS011;27286;47.870;19.006;2023-11-22T10:31:53;3.03;;;2.10;;
41572;SDS011;27286;47.870;19.006;2023-11-22T10:34:19;3.85;;;1.63;;
41572;SDS011;27286;47.870;19.006;2023-11-22T10:36:45;4.57;;;2.17;;
41572;SDS011;27286;47.870;19.006;2023-11-22T10:39:12;3.90;;;1.80;;
41572;SDS011;27286;47.870;19.006;2023-11-22T10:41:41;4.03;;;2.08;;
41572;SDS011;27286;47.870;19.006;2023-11-22T10:44:09;3.38;;;1.65;;
41572;SDS011;27286;47.870;19.006;2023-11-22T10:46:34;3.53;;;1.30;;
41572;SDS011;27286;47.870;19.006;2023-11-22T10:49:04;3.58;;;1.40;;
41572;SDS011;27286;47.870;19.006;2023-11-22T10:51:30;3.17;;;1.45;;
41572;SDS011;27286;47.870;19.006;2023-11-22T10:53:57;2.35;;;1.45;;
41572;SDS011;27286;47.870;19.006;2023-11-22T10:56:26;3.50;;;1.58;;
41572;SDS011;27286;47.870;19.006;2023-11-22T10:58:56;2.70;;;1.58;;
41572;SDS011;27286;47.870;19.006;2023-11-22T11:01:25;3.22;;;1.48;;
41572;SDS011;27286;47.870;19.006;2023-11-22T11:04:08;10.35;;;5.45;;
41572;SDS011;27286;47.870;19.006;2023-11-22T11:06:36;4.63;;;2.58;;
41572;SDS011;27286;47.870;19.006;2023-11-22T11:09:05;5.07;;;2.80;;
41572;SDS011;27286;47.870;19.006;2023-11-22T11:11:34;4.55;;;1.88;;
41572;SDS011;27286;47.870;19.006;2023-11-22T11:14:00;3.25;;;1.50;;
41572;SDS011;27286;47.870;19.006;2023-11-22T11:16:27;2.05;;;1.10;;
41572;SDS011;27286;47.870;19.006;2023-11-22T11:18:56;2.78;;;1.58;;
41572;SDS011;27286;47.870;19.006;2023-11-22T11:21:22;3.22;;;1.83;;
41572;SDS011;27286;47.870;19.006;2023-11-22T11:23:51;3.53;;;2.30;;
41572;SDS011;27286;47.870;19.006;2023-11-22T11:26:19;3.65;;;2.15;;
41572;SDS011;27286;47.870;19.006;2023-11-22T11:28:47;3.28;;;2.20;;
41572;SDS011;27286;47.870;19.006;2023-11-22T11:31:14;12.02;;;6.35;;
41572;SDS011;27286;47.870;19.006;2023-11-22T11:38:49;3.30;;;1.80;;
41572;SDS011;27286;47.870;19.006;2023-11-22T11:41:15;3.88;;;2.10;;
41572;SDS011;27286;47.870;19.006;2023-11-22T11:43:45;3.22;;;1.00;;
41572;SDS011;27286;47.870;19.006;2023-11-22T11:46:11;3.17;;;1.10;;
41572;SDS011;27286;47.870;19.006;2023-11-22T11:48:38;2.85;;;1.67;;
41572;SDS011;27286;47.870;19.006;2023-11-22T11:51:07;4.00;;;2.72;;
41572;SDS011;27286;47.870;19.006;2023-11-22T11:53:33;3.40;;;2.28;;
41572;SDS011;27286;47.870;19.006;2023-11-22T11:55:58;6.03;;;4.00;;
41572;SDS011;27286;47.870;19.006;2023-11-22T11:58:24;6.28;;;3.40;;
41572;SDS011;27286;47.870;19.006;2023-11-22T12:00:54;3.47;;;2.50;;
41572;SDS011;27286;47.870;19.006;2023-11-22T12:03:20;4.40;;;2.25;;
41572;SDS011;27286;47.870;19.006;2023-11-22T12:05:46;8.57;;;3.15;;
41572;SDS011;27286;47.870;19.006;2023-11-22T12:08:13;2.60;;;1.88;;
41572;SDS011;27286;47.870;19.006;2023-11-22T12:10:43;5.05;;;2.65;;
41572;SDS011;27286;47.870;19.006;2023-11-22T12:13:13;4.80;;;2.83;;
41572;SDS011;27286;47.870;19.006;2023-11-22T12:15:41;3.42;;;1.60;;
41572;SDS011;27286;47.870;19.006;2023-11-22T12:18:07;3.58;;;1.90;;
41572;SDS011;27286;47.870;19.006;2023-11-22T12:20:32;2.97;;;1.85;;
41572;SDS011;27286;47.870;19.006;2023-11-22T12:22:58;3.13;;;1.75;;
41572;SDS011;27286;47.870;19.006;2023-11-22T12:25:29;3.13;;;1.65;;
41572;SDS011;27286;47.870;19.006;2023-11-22T12:27:55;3.95;;;2.25;;
41572;SDS011;27286;47.870;19.006;2023-11-22T12:30:33;3.60;;;2.05;;
41572;SDS011;27286;47.870;19.006;2023-11-22T12:33:04;3.95;;;2.53;;
41572;SDS011;27286;47.870;19.006;2023-11-22T12:35:32;5.30;;;2.75;;
41572;SDS011;27286;47.870;19.006;2023-11-22T12:38:02;3.95;;;2.67;;
41572;SDS011;27286;47.870;19.006;2023-11-22T12:40:31;5.85;;;3.60;;
41572;SDS011;27286;47.870;19.006;2023-11-22T12:42:58;3.75;;;2.38;;
41572;SDS011;27286;47.870;19.006;2023-11-22T12:45:26;4.78;;;2.97;;
41572;SDS011;27286;47.870;19.006;2023-11-22T12:47:54;8.05;;;3.15;;
41572;SDS011;27286;47.870;19.006;2023-11-22T12:50:36;5.22;;;3.30;;
41572;SDS011;27286;47.870;19.006;2023-11-22T12:53:14;5.93;;;4.18;;
41572;SDS011;27286;47.870;19.006;2023-11-22T12:58:10;4.63;;;2.85;;
41572;SDS011;27286;47.870;19.006;2023-11-22T13:00:35;4.30;;;3.40;;
41572;SDS011;27286;47.870;19.006;2023-11-22T13:03:01;6.15;;;3.92;;
41572;SDS011;27286;47.870;19.006;2023-11-22T13:05:27;7.07;;;3.65;;
41572;SDS011;27286;47.870;19.006;2023-11-22T13:07:52;4.90;;;3.88;;
41572;SDS011;27286;47.870;19.006;2023-11-22T13:10:18;6.63;;;3.75;;
41572;SDS011;27286;47.870;19.006;2023-11-22T13:12:44;6.80;;;3.97;;
41572;SDS011;27286;47.870;19.006;2023-11-22T13:15:10;7.03;;;3.25;;
41572;SDS011;27286;47.870;19.006;2023-11-22T13:17:39;6.00;;;4.35;;
41572;SDS011;27286;47.870;19.006;2023-11-22T13:20:07;5.13;;;3.42;;
41572;SDS011;27286;47.870;19.006;2023-11-22T13:22:43;5.18;;;3.33;;
41572;SDS011;27286;47.870;19.006;2023-11-22T13:25:09;5.63;;;3.50;;
41572;SDS011;27286;47.870;19.006;2023-11-22T13:27:36;7.22;;;4.78;;
41572;SDS011;27286;47.870;19.006;2023-11-22T13:30:01;6.07;;;4.35;;
41572;SDS011;27286;47.870;19.006;2023-11-22T13:32:29;8.05;;;6.18;;
41572;SDS011;27286;47.870;19.006;2023-11-22T13:34:54;10.88;;;7.03;;
41572;SDS011;27286;47.870;19.006;2023-11-22T13:37:23;8.30;;;6.80;;
41572;SDS011;27286;47.870;19.006;2023-11-22T13:39:49;8.98;;;6.75;;
41572;SDS011;27286;47.870;19.006;2023-11-22T13:42:14;12.27;;;8.23;;
41572;SDS011;27286;47.870;19.006;2023-11-22T13:44:40;13.75;;;9.45;;
41572;SDS011;27286;47.870;19.006;2023-11-22T13:47:06;15.40;;;9.60;;
41572;SDS011;27286;47.870;19.006;2023-11-22T13:49:33;14.25;;;9.23;;
41572;SDS011;27286;47.870;19.006;2023-11-22T13:51:58;14.20;;;9.60;;
41572;SDS011;27286;47.870;19.006;2023-11-22T13:54:24;13.23;;;8.80;;
41572;SDS011;27286;47.870;19.006;2023-11-22T13:56:49;9.00;;;6.10;;
41572;SDS011;27286;47.870;19.006;2023-11-22T13:59:15;8.10;;;5.63;;
41572;SDS011;27286;47.870;19.006;2023-11-22T14:01:40;9.57;;;6.03;;
41572;SDS011;27286;47.870;19.006;2023-11-22T14:04:06;11.70;;;6.72;;
41572;SDS011;27286;47.870;19.006;2023-11-22T14:06:31;9.52;;;6.38;;
41572;SDS011;27286;47.870;19.006;2023-11-22T14:08:57;9.27;;;6.30;;
41572;SDS011;27286;47.870;19.006;2023-11-22T14:11:22;8.68;;;6.20;;
41572;SDS011;27286;47.870;19.006;2023-11-22T14:13:48;11.00;;;6.47;;
41572;SDS011;27286;47.870;19.006;2023-11-22T14:16:13;11.00;;;7.38;;
41572;SDS011;27286;47.870;19.006;2023-11-22T14:18:40;11.05;;;6.47;;
41572;SDS011;27286;47.870;19.006;2023-11-22T14:21:05;8.68;;;6.32;;
41572;SDS011;27286;47.870;19.006;2023-11-22T14:23:31;10.95;;;6.35;;
41572;SDS011;27286;47.870;19.006;2023-11-22T14:25:58;7.88;;;5.22;;
41572;SDS011;27286;47.870;19.006;2023-11-22T14:28:23;10.10;;;6.65;;
41572;SDS011;27286;47.870;19.006;2023-11-22T14:30:49;9.82;;;6.35;;
41572;SDS011;27286;47.870;19.006;2023-11-22T14:33:19;11.77;;;7.18;;
41572;SDS011;27286;47.870;19.006;2023-11-22T14:35:45;13.00;;;8.85;;
41572;SDS011;27286;47.870;19.006;2023-11-22T14:38:10;12.82;;;8.98;;
41572;SDS011;27286;47.870;19.006;2023-11-22T14:40:36;12.77;;;9.15;;
41572;SDS011;27286;47.870;19.006;2023-11-22T14:43:03;13.35;;;9.60;;
41572;SDS011;27286;47.870;19.006;2023-11-22T14:45:29;12.52;;;8.32;;
41572;SDS011;27286;47.870;19.006;2023-11-22T14:47:55;13.60;;;8.43;;
41572;SDS011;27286;47.870;19.006;2023-11-22T14:50:21;12.30;;;8.40;;
41572;SDS011;27286;47.870;19.006;2023-11-22T14:52:50;9.75;;;7.85;;
41572;SDS011;27286;47.870;19.006;2023-11-22T14:55:16;10.77;;;7.18;;
41572;SDS011;27286;47.870;19.006;2023-11-22T14:57:43;10.48;;;7.38;;
41572;SDS011;27286;47.870;19.006;2023-11-22T15:00:09;9.30;;;6.22;;
41572;SDS011;27286;47.870;19.006;2023-11-22T15:02:38;9.57;;;6.45;;
41572;SDS011;27286;47.870;19.006;2023-11-22T15:05:04;8.95;;;6.75;;
41572;SDS011;27286;47.870;19.006;2023-11-22T15:07:34;14.30;;;9.52;;
41572;SDS011;27286;47.870;19.006;2023-11-22T15:10:00;16.10;;;9.30;;
41572;SDS011;27286;47.870;19.006;2023-11-22T15:12:26;14.88;;;8.45;;
41572;SDS011;27286;47.870;19.006;2023-11-22T15:14:55;14.65;;;10.38;;
41572;SDS011;27286;47.870;19.006;2023-11-22T15:17:21;10.85;;;6.78;;
41572;SDS011;27286;47.870;19.006;2023-11-22T15:19:46;9.38;;;6.65;;
41572;SDS011;27286;47.870;19.006;2023-11-22T15:22:12;8.23;;;5.35;;
41572;SDS011;27286;47.870;19.006;2023-11-22T15:24:37;8.23;;;5.60;;
41572;SDS011;27286;47.870;19.006;2023-11-22T15:27:03;10.15;;;4.63;;
41572;SDS011;27286;47.870;19.006;2023-11-22T15:29:28;6.53;;;3.67;;
41572;SDS011;27286;47.870;19.006;2023-11-22T15:31:54;7.43;;;5.80;;
41572;SDS011;27286;47.870;19.006;2023-11-22T15:34:19;8.20;;;4.10;;
41572;SDS011;27286;47.870;19.006;2023-11-22T15:36:45;5.70;;;2.83;;
41572;SDS011;27286;47.870;19.006;2023-11-22T15:39:12;9.32;;;2.45;;
41572;SDS011;27286;47.870;19.006;2023-11-22T15:41:40;5.13;;;2.83;;
41572;SDS011;27286;47.870;19.006;2023-11-22T15:44:06;8.50;;;2.50;;
41572;SDS011;27286;47.870;19.006;2023-11-22T15:46:32;5.80;;;2.63;;
41572;SDS011;27286;47.870;19.006;2023-11-22T15:48:57;6.10;;;2.83;;
41572;SDS011;27286;47.870;19.006;2023-11-22T15:51:23;5.40;;;2.42;;
41572;SDS011;27286;47.870;19.006;2023-11-22T15:53:48;7.07;;;2.40;;
41572;SDS011;27286;47.870;19.006;2023-11-22T15:56:14;5.70;;;2.08;;
41572;SDS011;27286;47.870;19.006;2023-11-22T15:58:43;9.15;;;2.22;;
41572;SDS011;27286;47.870;19.006;2023-11-22T16:01:09;4.38;;;2.63;;
41572;SDS011;27286;47.870;19.006;2023-11-22T16:03:36;7.15;;;3.20;;
41572;SDS011;27286;47.870;19.006;2023-11-22T16:06:03;8.50;;;5.15;;
41572;SDS011;27286;47.870;19.006;2023-11-22T16:08:29;11.88;;;6.70;;
41572;SDS011;27286;47.870;19.006;2023-11-22T16:10:55;22.90;;;12.15;;
41572;SDS011;27286;47.870;19.006;2023-11-22T16:13:21;40.97;;;18.83;;
41572;SDS011;27286;47.870;19.006;2023-11-22T16:15:47;29.45;;;17.33;;
41572;SDS011;27286;47.870;19.006;2023-11-22T16:18:12;31.05;;;17.52;;
41572;SDS011;27286;47.870;19.006;2023-11-22T16:20:38;34.58;;;21.15;;
41572;SDS011;27286;47.870;19.006;2023-11-22T16:23:04;33.55;;;19.77;;
41572;SDS011;27286;47.870;19.006;2023-11-22T16:25:30;47.47;;;25.98;;
41572;SDS011;27286;47.870;19.006;2023-11-22T16:27:57;44.30;;;25.23;;
41572;SDS011;27286;47.870;19.006;2023-11-22T16:30:22;13.10;;;5.20;;
41572;SDS011;27286;47.870;19.006;2023-11-22T16:32:48;10.27;;;6.10;;
41572;SDS011;27286;47.870;19.006;2023-11-22T16:35:23;15.38;;;10.35;;
41572;SDS011;27286;47.870;19.006;2023-11-22T16:38:56;10.13;;;6.68;;
41572;SDS011;27286;47.870;19.006;2023-11-22T16:45:03;16.88;;;10.70;;
41572;SDS011;27286;47.870;19.006;2023-11-22T16:47:38;13.57;;;9.13;;
41572;SDS011;27286;47.870;19.006;2023-11-22T16:50:28;13.90;;;7.43;;